Time;durP1;ratioP1;P1;durP2;ratioP2;P2;SDS_P1;SDS_P2;PMS_P1;PMS_P2;Temp;Humidity;BMP_temperature;BMP_pressure;BME280_temperature;BME280_humidity;BME280_pressure;Samples;Min_cycle;Max_cycle;Signal;HPM_P1;HPM_P2
2022/04/10 00:01:20;;;;;;;2.60;2.40;;;;;;;;;;10253623;28;20442;-85
2022/04/10 00:06:21;;;;;;;3.17;2.42;;;;;;;;;;10253713;28;20608;-86
2022/04/10 00:11:23;;;;;;;3.47;2.50;;;;;;;;;;10253349;28;20595;-86
2022/04/10 00:16:26;;;;;;;4.73;2.70;;;;;;;;;;10253667;28;20583;-87
2022/04/10 00:21:28;;;;;;;2.92;2.60;;;;;;;;;;10249659;28;20424;-86
2022/04/10 00:26:30;;;;;;;3.05;2.70;;;;;;;;;;10254109;28;20434;-86
2022/04/10 00:31:34;;;;;;;3.45;2.90;;;;;;;;;;10253848;28;20505;-86
2022/04/10 00:36:36;;;;;;;4.15;2.95;;;;;;;;;;10254761;28;20404;-88
2022/04/10 00:41:37;;;;;;;4.70;3.40;;;;;;;;;;10261266;28;20523;-88
2022/04/10 00:46:41;;;;;;;4.30;3.50;;;;;;;;;;10260160;28;20483;-88
2022/04/10 00:51:46;;;;;;;5.70;3.38;;;;;;;;;;10260685;28;20404;-88
2022/04/10 00:56:48;;;;;;;5.32;3.30;;;;;;;;;;10253978;28;20485;-85
2022/04/10 01:01:52;;;;;;;3.30;3.00;;;;;;;;;;10258176;28;20410;-88
2022/04/10 01:06:54;;;;;;;4.03;3.10;;;;;;;;;;10260866;28;20552;-88
2022/04/10 01:11:56;;;;;;;3.97;3.08;;;;;;;;;;10258617;28;20423;-87
2022/04/10 01:17:00;;;;;;;3.73;3.00;;;;;;;;;;10257630;28;20895;-87
2022/04/10 01:22:06;;;;;;;3.50;3.00;;;;;;;;;;10262052;28;20442;-88
2022/04/10 01:27:09;;;;;;;3.05;2.72;;;;;;;;;;10257166;28;20434;-88
2022/04/10 01:32:11;;;;;;;4.00;3.15;;;;;;;;;;10259481;28;20821;-87
2022/04/10 01:37:15;;;;;;;3.63;3.20;;;;;;;;;;10271282;28;20583;-88
2022/04/10 01:42:18;;;;;;;3.67;3.17;;;;;;;;;;10261231;28;20513;-87
2022/04/10 01:47:20;;;;;;;3.33;2.97;;;;;;;;;;10261005;28;20501;-87
2022/04/10 01:52:22;;;;;;;3.90;3.30;;;;;;;;;;10254987;28;20949;-87
2022/04/10 01:57:25;;;;;;;4.32;3.20;;;;;;;;;;10261466;28;20827;-87
2022/04/10 02:02:27;;;;;;;5.68;3.10;;;;;;;;;;10258924;28;20435;-87
2022/04/10 02:07:29;;;;;;;5.60;3.42;;;;;;;;;;10254271;28;20970;-87
2022/04/10 02:12:34;;;;;;;4.93;3.13;;;;;;;;;;10257530;28;20523;-87
2022/04/10 02:17:36;;;;;;;4.05;3.33;;;;;;;;;;10251998;28;20414;-87
2022/04/10 02:22:37;;;;;;;4.82;3.45;;;;;;;;;;10254317;28;20460;-87
2022/04/10 02:27:41;;;;;;;3.85;3.30;;;;;;;;;;10254282;28;20438;-87
2022/04/10 02:32:43;;;;;;;3.78;3.15;;;;;;;;;;10254408;28;20410;-87
2022/04/10 02:37:46;;;;;;;5.72;3.33;;;;;;;;;;10258525;28;20410;-87
2022/04/10 02:42:49;;;;;;;3.85;3.38;;;;;;;;;;10252570;28;20425;-87
2022/04/10 02:47:51;;;;;;;5.07;3.60;;;;;;;;;;10254614;28;20479;-87
2022/04/10 02:52:54;;;;;;;4.22;3.47;;;;;;;;;;10253706;28;20495;-87
2022/04/10 02:57:57;;;;;;;5.00;4.00;;;;;;;;;;10253616;28;20499;-87
2022/04/10 03:02:59;;;;;;;4.90;3.77;;;;;;;;;;10253759;28;20522;-87
2022/04/10 03:08:01;;;;;;;5.10;4.10;;;;;;;;;;10253285;28;20426;-87
2022/04/10 03:13:05;;;;;;;5.97;3.73;;;;;;;;;;10254040;28;20410;-87
2022/04/10 03:18:07;;;;;;;5.57;3.90;;;;;;;;;;10254187;28;20857;-87
2022/04/10 03:23:10;;;;;;;5.05;3.50;;;;;;;;;;10254378;28;20416;-87
2022/04/10 03:28:13;;;;;;;5.82;3.85;;;;;;;;;;10194236;28;1906986;-87
2022/04/10 03:33:15;;;;;;;5.32;3.58;;;;;;;;;;10255608;28;20413;-87
2022/04/10 03:38:17;;;;;;;5.40;4.07;;;;;;;;;;10254952;28;20459;-87
2022/04/10 03:43:20;;;;;;;4.65;3.80;;;;;;;;;;10254474;28;20502;-87
2022/04/10 03:48:22;;;;;;;4.70;4.22;;;;;;;;;;10253766;28;20436;-87
2022/04/10 03:53:24;;;;;;;5.82;4.30;;;;;;;;;;10254166;28;20495;-87
2022/04/10 03:58:27;;;;;;;5.45;4.00;;;;;;;;;;10254421;28;20506;-87
2022/04/10 04:03:29;;;;;;;5.28;3.70;;;;;;;;;;10239222;28;20530;-87
2022/04/10 04:08:31;;;;;;;5.55;4.85;;;;;;;;;;10241574;28;20514;-87
2022/04/10 04:13:37;;;;;;;5.90;4.75;;;;;;;;;;10264873;28;20491;-87
2022/04/10 04:18:39;;;;;;;8.00;5.60;;;;;;;;;;10269263;28;20983;-87
2022/04/10 04:23:41;;;;;;;6.53;5.32;;;;;;;;;;10269366;28;20467;-86
2022/04/10 04:28:44;;;;;;;6.03;5.10;;;;;;;;;;10270348;28;20983;-87
2022/04/10 04:33:46;;;;;;;7.13;5.50;;;;;;;;;;10270488;28;20467;-87
2022/04/10 04:38:48;;;;;;;7.90;5.97;;;;;;;;;;10269410;28;20497;-88
2022/04/10 04:43:51;;;;;;;8.17;6.50;;;;;;;;;;10269023;28;20418;-87
2022/04/10 04:48:54;;;;;;;10.20;6.95;;;;;;;;;;10270945;28;20497;-87
2022/04/10 04:53:56;;;;;;;8.83;6.73;;;;;;;;;;10267896;28;20836;-87
2022/04/10 04:58:59;;;;;;;8.45;6.85;;;;;;;;;;10257826;28;20501;-87
2022/04/10 05:04:01;;;;;;;9.93;7.10;;;;;;;;;;10267704;28;20631;-87
2022/04/10 05:09:03;;;;;;;10.35;7.70;;;;;;;;;;10268741;28;20446;-87
2022/04/10 05:14:07;;;;;;;8.77;6.93;;;;;;;;;;10253597;28;20511;-87
2022/04/10 05:19:09;;;;;;;10.27;7.90;;;;;;;;;;10241274;28;20521;-87
2022/04/10 05:24:11;;;;;;;10.43;8.20;;;;;;;;;;10258194;28;20559;-87
2022/04/10 05:29:14;;;;;;;9.48;8.05;;;;;;;;;;10268926;28;20416;-87
2022/04/10 05:34:16;;;;;;;12.10;8.65;;;;;;;;;;10235037;28;20419;-87
2022/04/10 05:39:17;;;;;;;10.88;7.88;;;;;;;;;;10231057;28;20994;-87
2022/04/10 05:44:21;;;;;;;7.90;7.10;;;;;;;;;;10228693;28;20433;-87
2022/04/10 05:49:22;;;;;;;9.00;7.17;;;;;;;;;;10230242;28;20500;-88
2022/04/10 05:54:24;;;;;;;9.13;7.23;;;;;;;;;;10238759;28;20434;-86
2022/04/10 05:59:28;;;;;;;8.07;6.97;;;;;;;;;;10239955;28;20442;-85
2022/04/10 06:04:29;;;;;;;8.40;7.22;;;;;;;;;;10232519;28;20789;-86
2022/04/10 06:09:31;;;;;;;8.23;6.68;;;;;;;;;;10237531;28;20432;-86
2022/04/10 06:14:34;;;;;;;7.05;6.22;;;;;;;;;;10246311;28;20700;-87
2022/04/10 06:19:36;;;;;;;6.37;5.73;;;;;;;;;;10230581;28;20584;-87
2022/04/10 06:24:38;;;;;;;6.83;5.67;;;;;;;;;;10231714;28;20542;-87
2022/04/10 06:29:42;;;;;;;7.10;5.90;;;;;;;;;;10232360;28;20424;-87
2022/04/10 06:34:43;;;;;;;6.65;6.00;;;;;;;;;;10244465;28;20430;-86
2022/04/10 06:39:45;;;;;;;6.95;5.93;;;;;;;;;;10247872;28;20432;-87
2022/04/10 06:44:48;;;;;;;6.93;6.07;;;;;;;;;;10248645;28;20442;-87
2022/04/10 06:49:50;;;;;;;7.15;5.75;;;;;;;;;;10260106;28;20917;-87
2022/04/10 06:54:52;;;;;;;8.10;6.72;;;;;;;;;;10243886;28;20442;-87
2022/04/10 06:59:55;;;;;;;7.22;6.22;;;;;;;;;;10269040;28;20966;-87
2022/04/10 07:04:57;;;;;;;6.97;6.28;;;;;;;;;;10240587;28;20437;-87
2022/04/10 07:09:59;;;;;;;8.57;6.80;;;;;;;;;;10264270;28;20496;-86
2022/04/10 07:15:03;;;;;;;6.83;5.80;;;;;;;;;;10267826;28;20418;-87
2022/04/10 07:20:06;;;;;;;7.97;6.17;;;;;;;;;;10263048;28;20654;-87
2022/04/10 07:25:09;;;;;;;8.23;6.70;;;;;;;;;;10261894;28;20533;-88
2022/04/10 07:30:13;;;;;;;9.17;6.73;;;;;;;;;;10265363;28;20442;-88
2022/04/10 07:35:14;;;;;;;7.67;6.03;;;;;;;;;;10274986;28;20523;-88
2022/04/10 07:40:16;;;;;;;7.33;6.13;;;;;;;;;;10266277;28;20435;-88
2022/04/10 07:50:39;;;;;;;8.80;6.97;;;;;;;;;;10269094;28;20394;-88
2022/04/10 07:55:41;;;;;;;7.07;6.10;;;;;;;;;;10273123;28;20410;-88
2022/04/10 08:00:44;;;;;;;7.43;6.57;;;;;;;;;;10267018;28;20525;-88
2022/04/10 08:05:46;;;;;;;6.23;5.63;;;;;;;;;;10269198;28;20522;-88
2022/04/10 08:10:48;;;;;;;6.27;5.50;;;;;;;;;;10276750;28;20426;-88
2022/04/10 08:15:51;;;;;;;6.65;4.97;;;;;;;;;;10276534;28;20788;-88
2022/04/10 08:20:53;;;;;;;6.83;5.40;;;;;;;;;;10276338;28;20423;-88
2022/04/10 08:25:55;;;;;;;6.05;5.03;;;;;;;;;;10267120;28;20786;-89
2022/04/10 08:30:58;;;;;;;5.30;4.38;;;;;;;;;;10269023;28;20511;-88
2022/04/10 08:36:00;;;;;;;6.07;4.55;;;;;;;;;;10261770;28;20467;-88
2022/04/10 08:41:03;;;;;;;5.53;4.28;;;;;;;;;;10273202;28;20422;-87
2022/04/10 08:46:07;;;;;;;4.63;3.88;;;;;;;;;;10266012;28;20466;-91
2022/04/10 08:51:09;;;;;;;3.90;3.50;;;;;;;;;;10244512;28;20426;-89
2022/04/10 08:56:11;;;;;;;3.40;2.90;;;;;;;;;;10251905;28;20450;-90
2022/04/10 09:01:18;;;;;;;2.80;2.30;;;;;;;;;;10267191;28;20437;-90
2022/04/10 09:06:20;;;;;;;1.20;0.88;;;;;;;;;;10267691;28;20421;-89
2022/04/10 09:11:22;;;;;;;1.07;0.90;;;;;;;;;;10267761;28;20498;-88
2022/04/10 09:16:26;;;;;;;1.33;1.20;;;;;;;;;;10245915;28;20422;-89
2022/04/10 09:21:29;;;;;;;1.20;1.10;;;;;;;;;;10259106;28;20827;-89
2022/04/10 09:26:46;;;;;;;1.85;1.60;;;;;;;;;;10270614;28;20844;-90
2022/04/10 09:31:52;;;;;;;1.85;0.90;;;;;;;;;;10253948;28;20969;-89
2022/04/10 09:37:00;;;;;;;1.33;1.00;;;;;;;;;;10273117;28;20933;-89
2022/04/10 09:42:04;;;;;;;1.33;0.82;;;;;;;;;;10234061;28;21186;-87
2022/04/10 09:47:09;;;;;;;0.93;0.80;;;;;;;;;;10252912;28;20426;-89
2022/04/10 09:52:15;;;;;;;1.08;0.80;;;;;;;;;;10266316;28;20414;-88
2022/04/10 09:57:26;;;;;;;1.27;0.87;;;;;;;;;;10256969;28;20416;-91
2022/04/10 10:02:30;;;;;;;1.58;1.02;;;;;;;;;;10230566;28;20834;-90
2022/04/10 10:07:33;;;;;;;1.05;0.85;;;;;;;;;;10234608;28;20438;-90
2022/04/10 10:12:38;;;;;;;1.30;0.87;;;;;;;;;;10225206;28;20559;-94
2022/04/10 10:17:43;;;;;;;1.50;1.00;;;;;;;;;;10244544;28;20416;-95
2022/04/10 10:22:45;;;;;;;1.40;0.80;;;;;;;;;;10233400;28;20830;-95
2022/04/10 10:28:16;;;;;;;1.52;0.95;;;;;;;;;;10232486;28;20439;-94
2022/04/10 10:33:30;;;;;;;1.10;1.00;;;;;;;;;;10247001;28;20993;-96
2022/04/10 10:38:33;;;;;;;1.65;1.10;;;;;;;;;;10241749;28;20427;-95
2022/04/10 10:43:35;;;;;;;1.92;1.05;;;;;;;;;;10233617;28;20426;-95
2022/04/10 10:48:40;;;;;;;1.47;1.30;;;;;;;;;;10237854;28;20433;-95
2022/04/10 10:53:44;;;;;;;1.92;1.20;;;;;;;;;;10242856;28;20816;-95
2022/04/10 10:58:48;;;;;;;1.27;1.10;;;;;;;;;;10247517;28;20420;-95
2022/04/10 11:10:12;;;;;;;1.10;1.00;;;;;;;;;;10144945;29;20426;-93
2022/04/10 11:15:19;;;;;;;1.85;1.00;;;;;;;;;;10290568;28;20411;-93
2022/04/10 11:20:24;;;;;;;0.85;0.80;;;;;;;;;;10293745;28;20418;-92
2022/04/10 11:25:38;;;;;;;1.08;0.93;;;;;;;;;;10262175;28;20431;-93
2022/04/10 11:30:42;;;;;;;2.15;0.90;;;;;;;;;;10246451;28;20429;-85
2022/04/10 11:35:55;;;;;;;1.77;0.70;;;;;;;;;;10238889;28;20421;-88
2022/04/10 11:40:59;;;;;;;0.90;0.90;;;;;;;;;;10225123;28;20434;-88
2022/04/10 11:46:03;;;;;;;1.10;0.80;;;;;;;;;;10229055;28;20849;-87
2022/04/10 11:51:08;;;;;;;1.00;0.90;;;;;;;;;;10220788;28;20522;-88
2022/04/10 11:56:14;;;;;;;1.70;0.70;;;;;;;;;;10212109;28;20493;-87
2022/04/10 12:01:16;;;;;;;1.58;0.82;;;;;;;;;;10216851;28;20419;-88
2022/04/10 12:06:21;;;;;;;1.03;0.93;;;;;;;;;;10200448;28;20459;-88
2022/04/10 12:11:25;;;;;;;1.23;0.85;;;;;;;;;;10217956;28;20447;-86
2022/04/10 12:16:26;;;;;;;1.40;0.90;;;;;;;;;;10217148;28;20447;-86
2022/04/10 12:21:28;;;;;;;1.10;1.00;;;;;;;;;;10211352;28;20428;-86
2022/04/10 12:26:33;;;;;;;1.58;1.40;;;;;;;;;;10217672;28;20518;-88
2022/04/10 12:31:35;;;;;;;2.38;1.10;;;;;;;;;;10218600;28;20578;-86
2022/04/10 12:36:47;;;;;;;1.30;1.20;;;;;;;;;;10221730;28;21224;-88
2022/04/10 12:41:58;;;;;;;1.43;1.30;;;;;;;;;;10210002;28;20425;-88
2022/04/10 12:47:00;;;;;;;1.37;1.03;;;;;;;;;;10223907;28;20524;-87
2022/04/10 12:52:03;;;;;;;1.70;1.50;;;;;;;;;;10224616;28;20426;-86
2022/04/10 12:57:08;;;;;;;2.28;1.90;;;;;;;;;;10216709;28;20516;-89
2022/04/10 13:02:20;;;;;;;2.93;1.87;;;;;;;;;;10225842;28;20491;-90
2022/04/10 13:07:22;;;;;;;1.50;1.40;;;;;;;;;;10220154;28;20432;-81
2022/04/10 13:12:28;;;;;;;2.05;1.77;;;;;;;;;;10235086;28;20456;-93
2022/04/10 13:23:14;;;;;;;1.80;1.50;;;;;;;;;;10211051;28;20416;-93
2022/04/10 13:28:18;;;;;;;1.90;1.80;;;;;;;;;;10253173;28;20458;-92
2022/04/10 13:33:20;;;;;;;3.10;1.85;;;;;;;;;;10242271;28;20465;-94
2022/04/10 13:38:22;;;;;;;1.92;1.73;;;;;;;;;;10236590;28;20428;-93
2022/04/10 13:43:26;;;;;;;2.30;2.10;;;;;;;;;;10249889;28;20531;-94
2022/04/10 13:48:28;;;;;;;2.00;1.90;;;;;;;;;;10226093;28;20438;-92
2022/04/10 13:53:30;;;;;;;2.25;1.80;;;;;;;;;;10239538;28;20531;-93
2022/04/10 13:58:34;;;;;;;1.65;1.52;;;;;;;;;;10246164;28;20525;-93
2022/04/10 14:03:36;;;;;;;1.90;1.80;;;;;;;;;;10234178;28;20506;-94
2022/04/10 14:08:39;;;;;;;2.00;1.70;;;;;;;;;;10228999;28;20470;-93
2022/04/10 14:13:47;;;;;;;2.67;1.58;;;;;;;;;;10230478;28;20516;-92
2022/04/10 14:18:53;;;;;;;2.20;1.57;;;;;;;;;;10218081;28;20485;-93
2022/04/10 14:23:55;;;;;;;1.95;1.60;;;;;;;;;;10237049;28;20438;-91
2022/04/10 14:28:58;;;;;;;4.65;1.73;;;;;;;;;;10235205;28;20475;-95
2022/04/10 14:34:04;;;;;;;1.40;1.30;;;;;;;;;;10241064;28;20440;-93
2022/04/10 14:39:06;;;;;;;1.53;1.40;;;;;;;;;;10236503;28;20558;-92
2022/04/10 14:44:10;;;;;;;1.42;1.33;;;;;;;;;;10234646;28;20501;-93
2022/04/10 14:49:12;;;;;;;1.40;1.17;;;;;;;;;;10231122;29;20446;-94
2022/04/10 14:54:15;;;;;;;1.70;1.20;;;;;;;;;;10233109;28;20421;-93
2022/04/10 14:59:19;;;;;;;2.07;1.33;;;;;;;;;;10239194;28;20442;-92
2022/04/10 15:04:21;;;;;;;1.45;1.33;;;;;;;;;;10225215;28;20437;-92
2022/04/10 15:09:23;;;;;;;1.33;1.20;;;;;;;;;;10229479;28;20441;-93
2022/04/10 15:14:27;;;;;;;1.50;1.30;;;;;;;;;;10230700;28;20502;-92
2022/04/10 15:19:29;;;;;;;1.90;1.30;;;;;;;;;;10222512;28;20770;-92
2022/04/10 15:24:31;;;;;;;2.00;1.40;;;;;;;;;;10218024;28;20515;-92
2022/04/10 15:29:34;;;;;;;1.30;1.10;;;;;;;;;;10222394;28;20459;-92
2022/04/10 15:34:36;;;;;;;2.00;1.30;;;;;;;;;;10227122;28;20583;-92
2022/04/10 15:39:40;;;;;;;1.52;1.30;;;;;;;;;;10227804;28;20495;-94
2022/04/10 15:44:43;;;;;;;2.05;1.60;;;;;;;;;;10225586;28;20480;-92
2022/04/10 15:49:47;;;;;;;1.60;1.50;;;;;;;;;;10240983;28;20525;-93
2022/04/10 15:54:48;;;;;;;1.77;1.30;;;;;;;;;;10226120;28;20534;-94
2022/04/10 15:59:52;;;;;;;1.60;1.40;;;;;;;;;;10226748;28;20512;-95
2022/04/10 16:04:54;;;;;;;1.63;1.47;;;;;;;;;;10235275;28;20428;-92
2022/04/10 16:09:56;;;;;;;2.17;1.60;;;;;;;;;;10235942;28;20518;-92
2022/04/10 16:15:00;;;;;;;1.70;1.60;;;;;;;;;;10249370;28;20519;-93
2022/04/10 16:20:03;;;;;;;2.00;1.80;;;;;;;;;;10237817;28;20437;-91
2022/04/10 16:25:06;;;;;;;1.55;1.45;;;;;;;;;;10235829;28;20444;-92
2022/04/10 16:30:10;;;;;;;2.65;1.73;;;;;;;;;;10238832;28;20534;-92
2022/04/10 16:35:17;;;;;;;2.55;1.60;;;;;;;;;;10233296;28;20436;-91
2022/04/10 16:40:20;;;;;;;1.83;1.67;;;;;;;;;;10231451;28;20511;-89
2022/04/10 16:45:23;;;;;;;3.67;1.70;;;;;;;;;;10241413;28;20511;-89
2022/04/10 16:50:26;;;;;;;2.33;1.70;;;;;;;;;;10229559;28;21006;-90
2022/04/10 16:55:28;;;;;;;2.57;1.40;;;;;;;;;;10227171;28;20427;-91
2022/04/10 17:00:33;;;;;;;1.45;1.35;;;;;;;;;;10231771;28;20422;-90
2022/04/10 17:05:35;;;;;;;1.88;1.70;;;;;;;;;;10233876;28;20412;-91
2022/04/10 17:10:37;;;;;;;2.22;1.50;;;;;;;;;;10225059;28;20905;-91
2022/04/10 17:15:41;;;;;;;1.90;1.50;;;;;;;;;;10231112;28;20454;-90
2022/04/10 17:20:44;;;;;;;1.57;1.47;;;;;;;;;;10225881;28;20471;-92
2022/04/10 17:25:46;;;;;;;2.03;1.60;;;;;;;;;;10234133;28;20424;-91
2022/04/10 17:30:50;;;;;;;2.08;1.50;;;;;;;;;;10244754;28;20969;-91
2022/04/10 17:35:51;;;;;;;3.53;1.90;;;;;;;;;;10226858;28;20503;-93
2022/04/10 17:41:00;;;;;;;3.43;2.30;;;;;;;;;;10227464;28;20497;-92
2022/04/10 17:46:04;;;;;;;2.40;2.20;;;;;;;;;;10225631;28;20422;-90
2022/04/10 17:51:06;;;;;;;3.08;2.70;;;;;;;;;;10224567;28;20425;-90
2022/04/10 17:56:08;;;;;;;4.60;3.10;;;;;;;;;;10224855;28;20612;-94
2022/04/10 18:01:12;;;;;;;3.83;3.40;;;;;;;;;;10239432;28;20409;-92
2022/04/10 18:06:15;;;;;;;4.47;3.90;;;;;;;;;;10238777;28;20425;-94
2022/04/10 18:11:17;;;;;;;6.50;4.60;;;;;;;;;;10230550;28;20476;-92
2022/04/10 18:16:21;;;;;;;5.37;4.47;;;;;;;;;;10241739;28;20418;-91
2022/04/10 18:21:23;;;;;;;6.07;4.88;;;;;;;;;;10242879;28;20433;-92
2022/04/10 18:26:25;;;;;;;8.43;6.07;;;;;;;;;;10225019;28;20501;-92
2022/04/10 18:31:28;;;;;;;6.23;5.03;;;;;;;;;;10234828;28;20520;-90
2022/04/10 18:36:30;;;;;;;7.57;4.93;;;;;;;;;;10226466;28;20496;-93
2022/04/10 18:41:32;;;;;;;7.05;5.32;;;;;;;;;;10221007;28;20469;-94
2022/04/10 18:46:35;;;;;;;9.35;7.05;;;;;;;;;;10218837;28;20469;-94
2022/04/10 18:51:37;;;;;;;16.33;13.05;;;;;;;;;;10228636;28;20414;-93
2022/04/10 18:56:40;;;;;;;14.90;10.70;;;;;;;;;;10221245;28;21514;-92
2022/04/10 19:01:46;;;;;;;12.38;9.00;;;;;;;;;;10215051;28;20431;-93
2022/04/10 19:06:48;;;;;;;11.43;8.18;;;;;;;;;;10229819;28;20496;-92
2022/04/10 19:11:50;;;;;;;8.75;6.63;;;;;;;;;;10219941;28;20481;-91
2022/04/10 19:16:53;;;;;;;10.85;7.72;;;;;;;;;;10221857;28;20515;-93
2022/04/10 19:21:55;;;;;;;8.55;7.22;;;;;;;;;;10225141;28;20468;-93
2022/04/10 19:26:57;;;;;;;9.43;7.70;;;;;;;;;;10217271;28;20416;-92
2022/04/10 19:32:00;;;;;;;10.47;7.27;;;;;;;;;;10218244;28;20523;-92
2022/04/10 19:37:02;;;;;;;11.00;7.68;;;;;;;;;;10221539;28;20507;-91
2022/04/10 19:42:07;;;;;;;10.37;7.10;;;;;;;;;;10216399;28;20452;-92
2022/04/10 19:47:13;;;;;;;10.38;7.63;;;;;;;;;;10210191;28;20451;-93
2022/04/10 19:52:15;;;;;;;10.20;7.35;;;;;;;;;;10219302;28;20512;-91
2022/04/10 19:57:17;;;;;;;11.17;7.90;;;;;;;;;;10223939;28;20430;-90
2022/04/10 20:02:21;;;;;;;10.57;7.30;;;;;;;;;;10224520;28;20750;-91
2022/04/10 20:07:22;;;;;;;11.20;7.18;;;;;;;;;;10230955;28;20438;-93
2022/04/10 20:12:24;;;;;;;10.38;7.18;;;;;;;;;;10215300;28;20780;-91
2022/04/10 20:17:28;;;;;;;11.43;7.82;;;;;;;;;;10226870;28;20416;-91
2022/04/10 20:22:30;;;;;;;12.07;8.20;;;;;;;;;;10226657;28;20467;-91
2022/04/10 20:27:32;;;;;;;11.73;7.55;;;;;;;;;;10220293;28;20503;-93
2022/04/10 20:32:35;;;;;;;10.87;7.83;;;;;;;;;;10224109;28;20932;-91
2022/04/10 20:37:37;;;;;;;12.45;7.75;;;;;;;;;;10221239;28;20906;-91
2022/04/10 20:42:39;;;;;;;12.15;8.20;;;;;;;;;;10226398;28;20539;-91
2022/04/10 20:47:44;;;;;;;10.57;8.48;;;;;;;;;;10236869;29;20426;-91
2022/04/10 20:52:46;;;;;;;11.98;8.75;;;;;;;;;;10225075;28;20433;-92
2022/04/10 20:57:47;;;;;;;12.25;8.70;;;;;;;;;;10252189;28;20489;-93
2022/04/10 21:02:51;;;;;;;13.00;8.30;;;;;;;;;;10234184;28;20884;-91
2022/04/10 21:07:54;;;;;;;11.85;8.55;;;;;;;;;;10233468;28;20515;-91
2022/04/10 21:12:56;;;;;;;11.13;8.25;;;;;;;;;;10231269;28;20478;-92
2022/04/10 21:17:59;;;;;;;12.00;8.87;;;;;;;;;;10237744;28;20488;-90
2022/04/10 21:23:01;;;;;;;11.77;8.30;;;;;;;;;;10232903;28;20432;-93
2022/04/10 21:28:03;;;;;;;12.98;8.80;;;;;;;;;;10230648;28;20510;-91
2022/04/10 21:33:10;;;;;;;11.52;8.40;;;;;;;;;;10246512;28;20920;-93
2022/04/10 21:38:12;;;;;;;10.15;8.00;;;;;;;;;;10244855;28;20437;-92
2022/04/10 21:43:14;;;;;;;10.80;7.83;;;;;;;;;;10244061;28;20492;-91
2022/04/10 21:48:17;;;;;;;9.97;8.00;;;;;;;;;;10239598;28;20666;-91
2022/04/10 21:53:19;;;;;;;10.40;8.18;;;;;;;;;;10248877;28;20847;-92
2022/04/10 21:58:21;;;;;;;10.88;7.70;;;;;;;;;;10249501;28;20918;-91
2022/04/10 22:03:24;;;;;;;9.63;7.47;;;;;;;;;;10253784;28;20438;-91
2022/04/10 22:08:26;;;;;;;12.35;8.13;;;;;;;;;;10254865;28;20509;-92
2022/04/10 22:13:28;;;;;;;11.20;8.37;;;;;;;;;;10255707;28;20455;-92
2022/04/10 22:18:31;;;;;;;10.65;8.02;;;;;;;;;;10251213;28;20850;-91
2022/04/10 22:23:33;;;;;;;10.57;7.80;;;;;;;;;;10250850;28;20585;-91
2022/04/10 22:28:35;;;;;;;11.70;7.47;;;;;;;;;;10253126;28;20927;-90
2022/04/10 22:33:38;;;;;;;11.27;7.60;;;;;;;;;;10250190;28;20512;-93
2022/04/10 22:38:40;;;;;;;10.25;7.63;;;;;;;;;;10254873;28;20448;-91
2022/04/10 22:43:42;;;;;;;11.00;7.63;;;;;;;;;;10250234;28;21151;-92
2022/04/10 22:48:45;;;;;;;13.10;8.90;;;;;;;;;;10252058;28;20518;-91
2022/04/10 22:53:47;;;;;;;12.93;9.20;;;;;;;;;;10255318;28;20560;-93
2022/04/10 22:58:49;;;;;;;13.55;8.90;;;;;;;;;;10249689;28;20565;-92
2022/04/10 23:03:52;;;;;;;11.53;8.80;;;;;;;;;;10255309;28;20429;-91
2022/04/10 23:08:54;;;;;;;12.60;8.20;;;;;;;;;;10248572;28;20503;-92
2022/04/10 23:13:56;;;;;;;12.23;8.37;;;;;;;;;;10255144;28;20913;-91
2022/04/10 23:18:59;;;;;;;12.53;7.90;;;;;;;;;;10254112;28;20455;-90
2022/04/10 23:24:03;;;;;;;11.17;7.90;;;;;;;;;;10254194;28;20542;-91
2022/04/10 23:29:05;;;;;;;11.15;7.93;;;;;;;;;;10254636;28;20552;-91
2022/04/10 23:34:08;;;;;;;12.02;7.85;;;;;;;;;;10255629;28;20882;-93
2022/04/10 23:39:10;;;;;;;11.27;7.60;;;;;;;;;;10260421;28;20502;-91
2022/04/10 23:44:12;;;;;;;11.77;8.35;;;;;;;;;;10258309;28;20525;-91
2022/04/10 23:49:15;;;;;;;13.52;8.95;;;;;;;;;;10241916;28;20480;-90
2022/04/10 23:54:18;;;;;;;10.97;8.43;;;;;;;;;;10242102;29;20463;-91
2022/04/10 23:59:20;;;;;;;12.85;8.10;;;;;;;;;;10242528;28;20466;-91
